createdAt,value
2023-03-29T00:02:09.248Z,8.45
2023-03-29T00:04:36.340Z,3.13
2023-03-29T00:07:04.502Z,6.70
2023-03-29T00:09:33.083Z,8.27
2023-03-29T00:12:01.338Z,5.15
2023-03-29T00:14:30.665Z,7.05
2023-03-29T00:16:59.007Z,6.90
2023-03-29T00:19:26.131Z,5.00
2023-03-29T00:21:53.060Z,9.82
2023-03-29T00:24:21.264Z,5.03
2023-03-29T00:26:48.401Z,3.40
2023-03-29T00:29:15.909Z,4.27
2023-03-29T00:31:45.754Z,9.02
2023-03-29T00:34:12.676Z,3.85
2023-03-29T00:36:40.155Z,4.90
2023-03-29T00:39:07.291Z,5.00
2023-03-29T00:41:34.093Z,3.38
2023-03-29T00:44:04.545Z,4.45
2023-03-29T00:46:34.729Z,5.80
2023-03-29T00:49:09.660Z,7.65
2023-03-29T00:51:39.576Z,4.47
2023-03-29T00:54:10.414Z,6.60
2023-03-29T00:56:40.348Z,5.95
2023-03-29T00:59:13.746Z,8.95
2023-03-29T01:01:54.341Z,5.40
2023-03-29T01:04:33.881Z,10.27
2023-03-29T01:07:17.866Z,7.38
2023-03-29T01:09:54.888Z,3.65
2023-03-29T01:12:29.703Z,8.13
2023-03-29T01:15:04.779Z,5.63
2023-03-29T01:17:33.080Z,3.60
2023-03-29T01:20:23.165Z,4.65
2023-03-29T01:23:27.143Z,5.63
2023-03-29T01:26:14.128Z,7.82
2023-03-29T01:28:47.258Z,5.30
2023-03-29T01:31:29.292Z,5.45
2023-03-29T01:34:08.062Z,6.32
2023-03-29T01:36:49.292Z,5.55
2023-03-29T01:39:16.672Z,2.75
2023-03-29T01:42:13.808Z,3.45
2023-03-29T01:45:16.058Z,4.90
2023-03-29T01:47:59.833Z,5.38
2023-03-29T01:50:47.517Z,1.92
2023-03-29T01:53:24.663Z,5.90
2023-03-29T01:56:06.048Z,6.22
2023-03-29T01:58:38.834Z,4.85
2023-03-29T02:01:10.287Z,8.82
2023-03-29T02:03:42.715Z,5.40
2023-03-29T02:06:14.405Z,6.95
2023-03-29T02:08:42.783Z,4.85
2023-03-29T02:11:09.744Z,4.57
2023-03-29T02:13:36.729Z,7.80
2023-03-29T02:16:09.185Z,2.33
2023-03-29T02:18:36.284Z,3.25
2023-03-29T02:21:03.306Z,6.75
2023-03-29T02:23:47.498Z,8.57
2023-03-29T02:26:14.939Z,5.00
2023-03-29T02:28:43.051Z,4.32
2023-03-29T02:31:43.077Z,4.10
2023-03-29T02:34:32.834Z,4.80
2023-03-29T02:37:06.604Z,6.07
2023-03-29T02:39:34.655Z,5.20
2023-03-29T02:42:03.013Z,9.68
2023-03-29T02:44:33.503Z,7.28
2023-03-29T02:47:15.546Z,8.48
2023-03-29T02:49:43.075Z,3.67
2023-03-29T02:52:16.693Z,9.10
2023-03-29T02:54:46.618Z,4.82
2023-03-29T02:57:13.531Z,9.02
2023-03-29T02:59:43.702Z,4.55
2023-03-29T03:02:12.182Z,9.73
2023-03-29T03:04:39.000Z,5.90
2023-03-29T03:07:05.793Z,6.32
2023-03-29T03:09:32.621Z,6.38
2023-03-29T03:11:59.435Z,7.30
2023-03-29T03:14:28.107Z,8.25
2023-03-29T03:16:55.135Z,6.30
2023-03-29T03:19:22.672Z,5.72
2023-03-29T03:21:49.501Z,6.18
2023-03-29T03:24:17.589Z,7.78
2023-03-29T03:26:46.237Z,4.75
2023-03-29T03:29:15.466Z,4.05
2023-03-29T03:31:42.903Z,5.35
2023-03-29T03:34:09.732Z,7.65
2023-03-29T03:36:36.914Z,3.80
2023-03-29T03:39:07.373Z,6.28
2023-03-29T03:41:34.995Z,4.80
2023-03-29T03:44:01.790Z,7.63
2023-03-29T03:46:29.791Z,5.20
2023-03-29T03:48:57.564Z,8.02
2023-03-29T03:51:24.385Z,5.35
2023-03-29T03:53:51.615Z,5.20
2023-03-29T03:56:18.385Z,5.53
2023-03-29T03:58:45.683Z,2.83
2023-03-29T04:01:12.472Z,6.38
2023-03-29T04:03:39.387Z,6.78
2023-03-29T04:06:06.543Z,7.13
2023-03-29T04:08:33.354Z,7.00
2023-03-29T04:11:00.451Z,8.02
2023-03-29T04:13:27.880Z,5.35
2023-03-29T04:15:57.589Z,7.68
2023-03-29T04:18:26.283Z,6.05
2023-03-29T04:20:53.150Z,5.70
2023-03-29T04:23:20.014Z,5.45
2023-03-29T04:25:46.946Z,4.13
2023-03-29T04:28:13.788Z,5.88
2023-03-29T04:30:40.913Z,9.57
2023-03-29T04:33:07.755Z,5.65
2023-03-29T04:35:34.800Z,7.05
2023-03-29T04:38:01.921Z,4.85
2023-03-29T04:40:29.051Z,6.57
2023-03-29T04:42:55.857Z,7.95
2023-03-29T04:45:22.799Z,8.02
2023-03-29T04:47:49.813Z,6.10
2023-03-29T04:50:16.611Z,5.57
2023-03-29T04:52:45.314Z,6.70
2023-03-29T04:55:12.745Z,6.78
2023-03-29T04:57:39.616Z,4.75
2023-03-29T05:00:15.058Z,4.35
2023-03-29T05:02:43.998Z,6.57
2023-03-29T05:05:12.067Z,6.13
2023-03-29T05:07:39.260Z,6.72
2023-03-29T05:10:07.200Z,5.20
2023-03-29T05:12:33.986Z,6.45
2023-03-29T05:15:01.160Z,4.78
2023-03-29T05:17:28.184Z,6.35
2023-03-29T05:19:55.012Z,5.93
2023-03-29T05:22:22.045Z,5.93
2023-03-29T05:24:48.941Z,8.27
2023-03-29T05:27:16.990Z,5.55
2023-03-29T05:29:44.738Z,5.97
2023-03-29T05:32:11.816Z,5.18
2023-03-29T05:34:39.134Z,6.20
2023-03-29T05:37:06.055Z,3.63
2023-03-29T05:39:34.608Z,8.63
2023-03-29T05:42:04.387Z,5.63
2023-03-29T05:44:31.195Z,8.23
2023-03-29T05:46:58.081Z,5.00
2023-03-29T05:49:25.410Z,7.70
2023-03-29T05:51:52.318Z,6.93
2023-03-29T05:54:19.088Z,5.53
2023-03-29T05:56:45.940Z,8.10
2023-03-29T05:59:13.729Z,7.18
2023-03-29T06:01:41.722Z,11.57
2023-03-29T06:04:08.601Z,8.82
2023-03-29T06:06:36.263Z,8.20
2023-03-29T06:09:03.355Z,6.88
2023-03-29T06:11:30.462Z,6.63
2023-03-29T06:13:57.566Z,9.82
2023-03-29T06:16:25.813Z,7.60
2023-03-29T06:18:53.180Z,8.68
2023-03-29T06:21:19.931Z,9.55
2023-03-29T06:23:47.332Z,5.80
2023-03-29T06:26:14.297Z,5.95
2023-03-29T06:28:41.991Z,8.60
2023-03-29T06:31:09.970Z,6.38
2023-03-29T06:33:38.063Z,6.15
2023-03-29T06:36:05.493Z,8.63
2023-03-29T06:38:32.333Z,5.93
2023-03-29T06:41:06.305Z,6.32
2023-03-29T06:43:34.660Z,6.90
2023-03-29T06:46:02.133Z,7.47
2023-03-29T06:48:29.280Z,5.50
2023-03-29T06:50:56.385Z,9.80
2023-03-29T06:53:23.238Z,9.23
2023-03-29T06:55:52.420Z,6.95
2023-03-29T06:58:19.608Z,6.70
2023-03-29T07:00:46.822Z,7.32
2023-03-29T07:03:20.208Z,9.40
2023-03-29T07:05:47.740Z,7.47
2023-03-29T07:08:16.455Z,6.85
2023-03-29T07:10:47.527Z,7.82
2023-03-29T07:13:15.534Z,5.78
2023-03-29T07:15:43.976Z,8.85
2023-03-29T07:18:12.672Z,6.70
2023-03-29T07:20:40.404Z,8.27
2023-03-29T07:23:09.389Z,6.93
2023-03-29T07:25:38.216Z,6.70
2023-03-29T07:28:06.072Z,6.18
2023-03-29T07:30:33.219Z,7.85
2023-03-29T07:33:00.536Z,9.18
2023-03-29T07:35:28.284Z,4.88
2023-03-29T07:37:55.792Z,8.32
2023-03-29T07:40:23.730Z,5.80
2023-03-29T07:42:54.182Z,4.47
2023-03-29T07:45:26.612Z,6.72
2023-03-29T07:47:59.178Z,7.20
2023-03-29T07:50:27.712Z,5.75
2023-03-29T07:52:55.092Z,5.13
2023-03-29T07:55:22.175Z,8.02
2023-03-29T07:57:49.962Z,6.55
2023-03-29T08:00:19.529Z,8.82
2023-03-29T08:02:49.833Z,5.78
2023-03-29T08:05:26.098Z,5.50
2023-03-29T08:08:00.875Z,5.50
2023-03-29T08:10:28.387Z,9.38
2023-03-29T08:12:55.571Z,5.25
2023-03-29T08:15:22.756Z,8.70
2023-03-29T08:17:49.593Z,5.13
2023-03-29T08:20:16.432Z,6.68
2023-03-29T08:22:43.527Z,7.35
2023-03-29T08:25:11.991Z,6.43
2023-03-29T08:27:39.704Z,5.35
2023-03-29T08:30:09.323Z,5.65
2023-03-29T08:32:37.465Z,6.28
2023-03-29T08:35:09.591Z,7.70
2023-03-29T08:37:37.296Z,5.65
2023-03-29T08:40:05.505Z,5.72
2023-03-29T08:43:12.778Z,5.57
2023-03-29T08:46:07.435Z,4.82
2023-03-29T08:48:42.320Z,5.28
2023-03-29T08:51:31.692Z,7.82
2023-03-29T08:54:19.285Z,6.80
2023-03-29T08:56:48.031Z,7.15
2023-03-29T08:59:29.236Z,6.47
2023-03-29T09:01:58.742Z,8.00
2023-03-29T09:04:31.614Z,6.38
2023-03-29T09:06:59.268Z,7.88
2023-03-29T09:09:34.103Z,6.35
2023-03-29T09:12:20.164Z,5.97
2023-03-29T09:15:11.856Z,6.78
2023-03-29T09:18:17.370Z,5.40
2023-03-29T09:21:35.491Z,7.18
2023-03-29T09:24:28.915Z,5.97
2023-03-29T09:27:27.835Z,4.90
2023-03-29T09:30:25.850Z,6.70
2023-03-29T09:33:00.723Z,5.70
2023-03-29T09:35:42.498Z,7.53
2023-03-29T09:38:13.977Z,6.22
2023-03-29T09:40:47.933Z,7.30
2023-03-29T09:43:29.706Z,6.10
2023-03-29T09:46:01.777Z,7.95
2023-03-29T09:48:34.753Z,4.30
2023-03-29T09:51:03.797Z,5.03
2023-03-29T09:53:30.747Z,6.53
2023-03-29T09:55:57.514Z,4.60
2023-03-29T09:58:27.647Z,7.25
2023-03-29T10:00:59.482Z,5.57
2023-03-29T10:03:29.432Z,6.43
2023-03-29T10:05:59.900Z,6.43
2023-03-29T10:08:39.183Z,4.70
2023-03-29T10:11:34.019Z,6.30
2023-03-29T10:14:11.569Z,7.15
2023-03-29T10:16:41.930Z,5.53
2023-03-29T10:19:18.437Z,4.72
2023-03-29T10:21:48.985Z,8.50
2023-03-29T10:24:24.469Z,4.13
2023-03-29T10:26:55.532Z,6.55
2023-03-29T10:29:25.002Z,6.55
2023-03-29T10:31:52.817Z,5.45
2023-03-29T10:34:20.748Z,8.77
2023-03-29T10:36:58.985Z,6.20
2023-03-29T10:39:29.784Z,6.07
2023-03-29T10:41:59.884Z,5.72
2023-03-29T10:44:34.572Z,3.72
2023-03-29T10:47:20.629Z,7.03
2023-03-29T10:49:56.479Z,5.05
2023-03-29T10:52:24.411Z,3.95
2023-03-29T10:54:54.860Z,3.33
2023-03-29T10:57:46.053Z,6.38
2023-03-29T11:00:34.377Z,3.65
2023-03-29T11:03:28.711Z,4.57
2023-03-29T11:06:28.529Z,4.80
2023-03-29T11:08:59.661Z,5.60
2023-03-29T11:12:14.925Z,5.95
2023-03-29T11:15:13.289Z,3.55
2023-03-29T11:17:59.723Z,6.78
2023-03-29T11:20:54.066Z,3.38
2023-03-29T11:23:37.484Z,8.85
2023-03-29T11:26:18.254Z,5.28
2023-03-29T11:28:53.177Z,6.30
2023-03-29T11:31:39.668Z,6.30
2023-03-29T11:34:49.131Z,7.35
2023-03-29T11:37:38.378Z,5.15
2023-03-29T11:41:05.133Z,5.88
2023-03-29T11:44:27.265Z,7.35
2023-03-29T11:47:09.674Z,5.32
2023-03-29T11:49:49.089Z,7.70
2023-03-29T11:52:30.062Z,4.50
2023-03-29T11:55:09.457Z,8.27
2023-03-29T11:57:59.447Z,8.45
2023-03-29T12:00:34.856Z,11.88
2023-03-29T12:03:13.194Z,11.60
2023-03-29T12:05:56.924Z,5.63
2023-03-29T12:08:35.615Z,6.97
2023-03-29T12:11:21.144Z,7.22
2023-03-29T12:13:52.592Z,9.95
2023-03-29T12:16:33.388Z,5.88
2023-03-29T12:19:11.241Z,7.55
2023-03-29T12:21:39.404Z,9.05
2023-03-29T12:24:06.482Z,9.02
2023-03-29T12:27:21.180Z,8.68
2023-03-29T12:30:21.496Z,7.95
2023-03-29T12:33:09.106Z,6.22
2023-03-29T12:36:16.296Z,10.50
2023-03-29T12:38:45.047Z,10.85
2023-03-29T12:41:19.047Z,8.85
2023-03-29T12:43:48.008Z,9.27
2023-03-29T12:46:27.051Z,9.57
2023-03-29T12:48:57.833Z,8.77
2023-03-29T12:51:32.575Z,8.10
2023-03-29T12:54:14.479Z,7.60
2023-03-29T12:56:52.003Z,7.32
2023-03-29T12:59:45.623Z,5.78
2023-03-29T13:02:21.727Z,7.30
2023-03-29T13:04:55.815Z,9.48
2023-03-29T13:07:22.594Z,7.57
2023-03-29T13:09:58.542Z,6.50
2023-03-29T13:12:35.558Z,10.23
2023-03-29T13:15:07.619Z,4.90
2023-03-29T13:18:03.158Z,4.07
2023-03-29T13:20:47.736Z,6.45
2023-03-29T13:23:37.075Z,5.10
2023-03-29T13:27:21.465Z,7.80
2023-03-29T13:30:22.721Z,6.30
2023-03-29T13:32:52.508Z,4.43
2023-03-29T13:35:44.347Z,6.45
2023-03-29T13:38:22.971Z,5.38
2023-03-29T13:40:52.786Z,4.63
2023-03-29T13:43:19.410Z,5.35
2023-03-29T13:46:36.426Z,4.60
2023-03-29T13:49:20.442Z,7.97
2023-03-29T13:51:53.170Z,3.78
2023-03-29T13:54:44.036Z,5.22
2023-03-29T13:57:23.201Z,5.13
2023-03-29T14:00:48.284Z,3.17
2023-03-29T14:03:20.174Z,4.40
2023-03-29T14:05:58.347Z,3.17
2023-03-29T14:08:37.315Z,3.97
2023-03-29T14:11:08.320Z,3.03
2023-03-29T14:13:35.277Z,2.65
2023-03-29T14:16:08.965Z,5.72
2023-03-29T14:18:40.542Z,4.40
2023-03-29T14:21:08.424Z,3.67
2023-03-29T14:23:37.601Z,3.88
2023-03-29T14:26:07.998Z,4.18
2023-03-29T14:28:34.794Z,3.65
2023-03-29T14:31:01.551Z,4.20
2023-03-29T14:33:37.960Z,6.82
2023-03-29T14:36:05.742Z,4.70
2023-03-29T14:38:32.977Z,4.78
2023-03-29T14:41:01.880Z,5.35
2023-03-29T14:43:31.860Z,5.13
2023-03-29T14:46:01.261Z,3.75
2023-03-29T14:48:28.802Z,4.22
2023-03-29T14:50:55.673Z,4.15
2023-03-29T14:53:24.146Z,4.65
2023-03-29T14:55:52.962Z,5.65
2023-03-29T14:58:23.854Z,4.10
2023-03-29T15:00:52.314Z,6.28
2023-03-29T15:03:26.118Z,4.10
2023-03-29T15:06:02.790Z,4.65
2023-03-29T15:08:32.926Z,4.40
2023-03-29T15:11:00.602Z,3.38
2023-03-29T15:13:28.330Z,4.05
2023-03-29T15:16:00.754Z,4.60
2023-03-29T15:18:35.295Z,3.17
2023-03-29T15:21:02.383Z,2.47
2023-03-29T15:23:38.405Z,2.63
2023-03-29T15:26:21.547Z,2.90
2023-03-29T15:28:55.572Z,4.55
2023-03-29T15:31:32.759Z,3.72
2023-03-29T15:34:10.237Z,2.65
2023-03-29T15:36:45.026Z,6.00
2023-03-29T15:39:17.661Z,1.90
2023-03-29T15:41:46.709Z,2.97
2023-03-29T15:44:19.366Z,2.78
2023-03-29T15:46:46.595Z,2.20
2023-03-29T15:49:14.118Z,2.38
2023-03-29T15:51:41.483Z,3.80
2023-03-29T15:54:09.135Z,2.67
2023-03-29T15:56:51.946Z,4.88
2023-03-29T15:59:19.138Z,3.13
2023-03-29T16:01:46.607Z,3.75
2023-03-29T16:04:17.558Z,5.97
2023-03-29T16:06:48.570Z,2.83
2023-03-29T16:09:17.036Z,3.70
2023-03-29T16:11:44.897Z,3.25
2023-03-29T16:14:31.240Z,4.68
2023-03-29T16:16:59.853Z,3.58
2023-03-29T16:19:28.152Z,4.60
2023-03-29T16:21:55.613Z,3.67
2023-03-29T16:24:25.908Z,9.95
2023-03-29T16:26:55.699Z,4.30
2023-03-29T16:29:24.482Z,5.20
2023-03-29T16:31:52.617Z,6.38
2023-03-29T16:34:20.492Z,5.57
2023-03-29T16:36:47.916Z,5.72
2023-03-29T16:39:15.838Z,5.90
2023-03-29T16:41:43.047Z,8.95
2023-03-29T16:44:16.809Z,5.88
2023-03-29T16:46:44.539Z,6.85
2023-03-29T16:49:18.638Z,8.77
2023-03-29T16:51:48.723Z,9.10
2023-03-29T16:54:17.197Z,10.50
2023-03-29T16:56:44.456Z,9.48
2023-03-29T16:59:11.895Z,6.03
2023-03-29T17:01:38.807Z,6.63
2023-03-29T17:04:05.898Z,10.75
2023-03-29T17:06:32.787Z,8.27
2023-03-29T17:09:00.586Z,6.05
2023-03-29T17:11:28.139Z,6.88
2023-03-29T17:13:55.104Z,7.20
2023-03-29T17:16:22.077Z,7.63
2023-03-29T17:18:48.943Z,10.00
2023-03-29T17:21:16.040Z,11.60
2023-03-29T17:23:42.887Z,9.57
2023-03-29T17:26:09.713Z,12.95
2023-03-29T17:28:37.056Z,6.68
2023-03-29T17:31:07.866Z,10.98
2023-03-29T17:33:35.948Z,8.82
2023-03-29T17:36:04.533Z,7.80
2023-03-29T17:38:33.863Z,6.95
2023-03-29T17:41:01.393Z,7.57
2023-03-29T17:43:28.196Z,8.20
2023-03-29T17:45:55.500Z,7.03
2023-03-29T17:48:24.180Z,7.18
2023-03-29T17:50:51.335Z,7.82
2023-03-29T17:53:18.097Z,8.27
2023-03-29T17:55:45.804Z,8.63
2023-03-29T17:58:12.696Z,11.70
2023-03-29T18:00:39.534Z,7.82
2023-03-29T18:03:06.406Z,12.30
2023-03-29T18:05:35.347Z,9.35
2023-03-29T18:08:02.393Z,8.48
2023-03-29T18:10:29.492Z,14.00
2023-03-29T18:12:56.406Z,9.60
2023-03-29T18:15:23.174Z,11.07
2023-03-29T18:17:49.968Z,6.68
2023-03-29T18:20:17.199Z,10.35
2023-03-29T18:22:44.491Z,8.93
2023-03-29T18:25:11.340Z,10.13
2023-03-29T18:27:39.607Z,7.60
2023-03-29T18:30:08.685Z,9.30
2023-03-29T18:32:36.174Z,10.95
2023-03-29T18:35:03.386Z,11.27
2023-03-29T18:37:30.143Z,8.52
2023-03-29T18:39:56.958Z,10.32
2023-03-29T18:42:23.826Z,10.48
2023-03-29T18:44:51.183Z,7.80
2023-03-29T18:47:20.621Z,9.45
2023-03-29T18:49:47.915Z,14.07
2023-03-29T18:52:14.718Z,19.58
2023-03-29T18:54:41.714Z,19.63
2023-03-29T18:57:08.693Z,15.38
2023-03-29T18:59:38.078Z,15.05
2023-03-29T19:02:04.903Z,14.75
2023-03-29T19:04:31.756Z,16.05
2023-03-29T19:07:01.182Z,16.02
2023-03-29T19:09:27.925Z,14.73
2023-03-29T19:11:54.733Z,11.35
2023-03-29T19:14:24.039Z,11.02
2023-03-29T19:16:52.150Z,10.70
2023-03-29T19:19:21.310Z,13.05
2023-03-29T19:21:48.768Z,8.38
2023-03-29T19:24:16.565Z,8.50
2023-03-29T19:26:44.326Z,12.13
2023-03-29T19:29:11.558Z,10.52
2023-03-29T19:31:38.584Z,10.23
2023-03-29T19:34:07.730Z,16.30
2023-03-29T19:36:34.523Z,14.18
2023-03-29T19:39:01.629Z,11.50
2023-03-29T19:41:28.650Z,11.10
2023-03-29T19:43:55.609Z,10.90
2023-03-29T19:46:22.685Z,11.95
2023-03-29T19:48:51.619Z,11.55
2023-03-29T19:51:18.470Z,12.15
2023-03-29T19:53:45.304Z,11.27
2023-03-29T19:56:14.242Z,11.98
2023-03-29T19:58:41.310Z,11.50
2023-03-29T20:01:08.360Z,12.65
2023-03-29T20:03:35.972Z,9.70
2023-03-29T20:06:03.049Z,13.57
2023-03-29T20:08:29.951Z,10.93
2023-03-29T20:10:58.806Z,9.75
2023-03-29T20:13:37.501Z,11.52
2023-03-29T20:16:11.215Z,12.93
2023-03-29T20:18:38.583Z,10.60
2023-03-29T20:21:08.976Z,10.65
2023-03-29T20:23:36.324Z,12.38
2023-03-29T20:26:03.189Z,11.95
2023-03-29T20:28:30.328Z,12.38
2023-03-29T20:30:57.194Z,11.23
2023-03-29T20:33:23.997Z,12.02
2023-03-29T20:35:50.869Z,10.50
2023-03-29T20:38:17.649Z,14.27
2023-03-29T20:40:44.903Z,12.75
2023-03-29T20:43:13.284Z,12.50
2023-03-29T20:45:52.749Z,10.15
2023-03-29T20:48:22.769Z,15.13
2023-03-29T20:50:49.841Z,10.40
2023-03-29T20:53:18.170Z,15.23
2023-03-29T20:55:45.243Z,12.05
2023-03-29T20:58:12.143Z,12.68
2023-03-29T21:00:40.320Z,11.98
2023-03-29T21:03:08.441Z,10.55
2023-03-29T21:05:35.531Z,12.75
2023-03-29T21:08:03.584Z,12.55
2023-03-29T21:10:30.787Z,7.82
2023-03-29T21:13:00.448Z,13.40
2023-03-29T21:15:30.210Z,12.57
2023-03-29T21:17:57.139Z,14.57
2023-03-29T21:20:24.200Z,10.52
2023-03-29T21:22:51.104Z,8.98
2023-03-29T21:25:18.652Z,9.10
2023-03-29T21:27:45.587Z,10.77
2023-03-29T21:30:12.670Z,8.75
2023-03-29T21:32:39.475Z,13.55
2023-03-29T21:35:07.059Z,9.45
2023-03-29T21:37:33.951Z,9.02
2023-03-29T21:40:01.212Z,14.25
2023-03-29T21:42:27.983Z,11.15
2023-03-29T21:44:54.737Z,11.43
2023-03-29T21:47:21.509Z,13.13
2023-03-29T21:49:48.529Z,13.23
2023-03-29T21:52:15.295Z,9.80
2023-03-29T21:54:42.167Z,15.45
2023-03-29T21:57:09.016Z,11.50
2023-03-29T21:59:35.788Z,14.55
2023-03-29T22:02:02.641Z,9.75
2023-03-29T22:04:36.857Z,10.38
2023-03-29T22:07:06.111Z,8.77
2023-03-29T22:09:35.242Z,10.32
2023-03-29T22:12:03.079Z,9.43
2023-03-29T22:14:34.882Z,7.28
2023-03-29T22:17:05.656Z,8.23
2023-03-29T22:19:33.893Z,9.18
2023-03-29T22:22:01.475Z,10.23
2023-03-29T22:24:29.161Z,7.45
2023-03-29T22:26:57.023Z,4.93
2023-03-29T22:29:23.824Z,8.40
2023-03-29T22:31:50.810Z,12.48
2023-03-29T22:34:17.746Z,6.35
2023-03-29T22:36:44.543Z,5.68
2023-03-29T22:39:11.991Z,7.80
2023-03-29T22:41:38.892Z,7.57
2023-03-29T22:44:05.851Z,8.48
2023-03-29T22:46:32.698Z,7.45
2023-03-29T22:48:59.756Z,10.35
2023-03-29T22:51:27.122Z,8.32
2023-03-29T22:53:53.985Z,7.07
2023-03-29T22:56:21.849Z,7.93
2023-03-29T22:58:48.857Z,10.13
2023-03-29T23:01:15.724Z,10.60
2023-03-29T23:03:42.546Z,8.63
2023-03-29T23:06:09.528Z,7.30
2023-03-29T23:08:36.334Z,11.02
2023-03-29T23:11:04.413Z,8.38
2023-03-29T23:13:33.229Z,6.85
2023-03-29T23:16:02.229Z,7.75
2023-03-29T23:18:31.402Z,9.27
2023-03-29T23:21:00.156Z,9.38
2023-03-29T23:23:28.463Z,6.75
2023-03-29T23:25:55.937Z,6.20
2023-03-29T23:28:27.206Z,6.38
2023-03-29T23:31:09.347Z,9.63
2023-03-29T23:33:40.282Z,7.13
2023-03-29T23:36:14.260Z,6.30
2023-03-29T23:38:42.292Z,8.30
2023-03-29T23:41:12.670Z,9.90
2023-03-29T23:43:42.297Z,11.35
2023-03-29T23:46:16.498Z,7.15
2023-03-29T23:48:48.951Z,9.23
2023-03-29T23:51:22.624Z,10.27
2023-03-29T23:53:50.543Z,11.68
2023-03-29T23:56:17.460Z,6.85
2023-03-29T23:58:44.490Z,8.48
